Latest Weather Observations for Willis Island

IDQ60801

Issued at 7:32 am EST Monday 22 April 2024 (issued every 10 minutes, with the page automatically refreshed every 10 minutes)

About weather observations | Map of weather stations | Latest weather observations for QLD | Other Formats
Station Details ID: 200283 Name: WILLIS ISLAND Lat: -16.29 Lon: 149.97 Height: 9.29 m
Data from the previous 72 hours. | See also: Recent months at Willis Island
Date/Time
EST
Temp
°C
App
Temp
°C
Dew
Point
°C
Rel
Hum
%
Delta-T
°C
Wind Press
QNH
hPa
Press
MSL
hPa
Rain since
9am
mm
Dir  Spd
km/h
Gust
km/h
Spd
kts
Gust
kts
22/07:30am 27.2 24.9 24.1 83 2.1 S 43 50 23 27 1011.9 1011.8 0.6
22/07:00am 27.3 25.2 24.4 84 2.0 S 43 50 23 27 1011.8 1011.7 0.6
22/06:30am 27.0 24.7 24.1 84 2.0 S 43 50 23 27 1011.4 1011.3 0.6
22/06:00am 27.0 23.9 23.7 82 2.3 S 46 52 25 28 1011.0 1010.9 0.6
22/05:30am 27.1 25.1 24.6 86 1.7 S 43 48 23 26 1010.5 1010.4 0.6
22/05:00am 27.0 25.2 24.3 85 1.9 S 41 46 22 25 1010.3 1010.2 0.6
22/04:30am 26.9 25.2 24.4 86 1.7 S 41 48 22 26 1010.0 1009.9 0.6
22/04:00am 26.9 25.3 24.5 87 1.7 S 41 46 22 25 1009.9 1009.8 0.6
22/03:30am 26.7 26.0 24.2 86 1.7 SSE 35 43 19 23 1009.9 1009.8 0.6
22/03:00am 26.8 26.7 24.6 88 1.5 SSE 33 39 18 21 1009.8 1009.7 0.6
22/02:30am 26.8 25.9 24.5 87 1.6 SSE 37 44 20 24 1010.0 1009.9 0.6
22/02:00am 26.7 25.4 24.5 88 1.5 S 39 48 21 26 1010.3 1010.2 0.6
22/01:30am 27.0 26.6 24.6 87 1.7 S 35 39 19 21 1010.6 1010.5 0.6
22/01:00am 27.0 26.5 24.5 86 1.7 SSE 35 41 19 22 1010.8 1010.7 0.6
22/12:30am 26.9 25.8 24.2 85 1.9 SSE 37 43 20 23 1011.2 1011.1 0.6
22/12:00am 26.9 26.3 24.4 86 1.7 SSE 35 41 19 22 1011.5 1011.4 0.6
 
Date/Time
EST
Temp
°C
App
Temp
°C
Dew
Point
°C
Rel
Hum
%
Delta-T
°C
Wind Press
QNH
hPa
Press
MSL
hPa
Rain since
9am
mm
Dir  Spd
km/h
Gust
km/h
Spd
kts
Gust
kts
21/11:30pm 26.8 26.2 24.3 86 1.7 SSE 35 39 19 21 1011.5 1011.4 0.6
21/11:00pm 26.7 26.0 24.2 86 1.7 SSE 35 43 19 23 1011.6 1011.5 0.6
21/10:30pm 26.5 26.4 24.5 89 1.4 SSE 33 37 18 20 1011.7 1011.6 0.6
21/10:00pm 25.8 23.5 24.0 90 1.2 SSE 43 50 23 27 1011.9 1011.8 0.6
21/09:30pm 25.9 25.5 25.2 96 0.5 S 37 44 20 24 1012.1 1012.0 0.4
21/09:00pm 27.5 27.9 25.1 87 1.7 SSE 32 39 17 21 1012.1 1012.0 0.0
21/08:30pm 27.3 26.9 24.7 86 1.8 SSE 35 39 19 21 1011.9 1011.8 0.0
21/08:00pm 27.2 27.5 24.8 87 1.7 SSE 32 37 17 20 1011.6 1011.5 0.0
21/07:30pm 27.1 26.9 24.4 85 1.9 SSE 33 39 18 21 1011.3 1011.2 0.0
21/07:00pm 27.3 28.0 24.9 87 1.7 SSE 30 35 16 19 1010.9 1010.8 0.0
21/06:30pm 27.2 27.0 24.1 83 2.1 SSE 32 37 17 20 1010.7 1010.6 0.0
21/06:00pm 27.5 28.2 24.9 86 1.8 SSE 30 35 16 19 1010.5 1010.4 0.0
21/05:30pm 27.5 27.5 24.4 83 2.1 SSE 32 35 17 19 1010.1 1010.0 0.0
21/05:00pm 27.6 27.6 24.4 83 2.2 SSE 32 35 17 19 1009.8 1009.7 0.0
21/04:30pm 27.6 27.5 24.2 82 2.4 SSE 32 37 17 20 1009.6 1009.5 0.0
21/04:00pm 28.1 28.0 24.3 80 2.6 SSE 32 37 17 20 1009.3 1009.2 0.0
21/03:30pm 28.6 29.0 25.0 81 2.5 S 32 35 17 19 1009.2 1009.1 0.0
21/03:00pm 28.7 29.6 25.3 82 2.4 SSE 30 33 16 18 1008.9 1008.8 0.0
21/02:30pm 28.4 29.2 25.0 82 2.4 S 30 35 16 19 1009.0 1008.9 0.0
21/02:00pm 28.3 29.0 24.9 82 2.4 S 30 33 16 18 1009.2 1009.1 0.0
21/01:30pm 28.7 29.5 25.1 81 2.5 SSE 30 32 16 17 1009.2 1009.1 0.0
21/01:00pm 29.6 31.1 25.6 79 2.8 SSE 28 30 15 16 1009.5 1009.4 0.0
21/12:30pm 28.6 29.9 25.2 82 2.4 SSE 28 35 15 19 1009.6 1009.5 0.0
21/12:00pm 30.0 32.3 26.2 80 2.7 SSE 26 30 14 16 1010.0 1009.9 0.0
21/11:30am 29.5 31.7 26.7 85 2.0 SSE 28 33 15 18 1010.3 1010.2 0.0
21/11:00am 29.3 30.9 25.7 81 2.5 SSE 28 32 15 17 1010.6 1010.5 0.0
21/10:30am 29.3 31.1 25.5 80 2.7 SSE 26 32 14 17 1011.0 1010.9 0.0
21/10:00am 29.1 30.4 25.3 80 2.7 SSE 28 32 15 17 1011.2 1011.1 0.0
21/09:30am 29.3 31.5 26.1 83 2.3 SSE 26 30 14 16 1011.4 1011.3 0.0
21/09:00am 28.8 31.1 25.6 83 2.3 SSE 24 28 13 15 1011.2 1011.1 0.2
21/08:30am 28.6 31.6 25.6 84 2.1 SSE 20 26 11 14 1011.1 1011.0 0.2
21/08:00am 27.8 30.1 25.0 85 2.0 SSE 22 26 12 14 1011.2 1011.1 0.2
21/07:30am 27.6 30.0 25.2 87 1.7 SSE 22 28 12 15 1011.0 1010.9 0.2
21/07:00am 27.3 29.5 24.9 87 1.7 SSE 22 26 12 14 1010.9 1010.8 0.2
21/06:30am 27.0 29.0 24.6 87 1.7 SSE 22 26 12 14 1010.4 1010.3 0.2
21/06:00am 26.8 28.3 24.3 86 1.7 SSE 24 28 13 15 1010.2 1010.1 0.2
21/05:30am 26.9 28.2 24.7 88 1.5 SE 26 30 14 16 1009.8 1009.7 0.2
21/05:00am 27.1 29.2 25.3 90 1.3 SSE 24 26 13 14 1009.7 1009.6 0.2
21/04:30am 27.1 28.9 24.9 88 1.5 SSE 24 28 13 15 1009.5 1009.4 0.2
21/04:00am 27.0 28.9 25.0 89 1.4 SSE 24 28 13 15 1009.4 1009.3 0.2
21/03:30am 27.1 28.9 24.9 88 1.5 SSE 24 28 13 15 1009.6 1009.5 0.2
21/03:00am 27.0 29.5 24.8 88 1.5 SSE 20 24 11 13 1009.6 1009.5 0.2
21/02:30am 27.2 29.0 24.8 87 1.7 S 24 28 13 15 1009.7 1009.6 0.2
21/02:00am 27.1 28.4 24.6 86 1.7 S 26 30 14 16 1009.7 1009.6 0.2
21/01:30am 27.0 28.8 24.8 88 1.5 SSE 24 30 13 16 1009.8 1009.7 0.2
21/01:00am 27.2 29.2 25.2 89 1.4 S 24 28 13 15 1010.1 1010.0 0.2
21/12:30am 27.1 28.6 24.9 88 1.5 S 26 30 14 16 1010.4 1010.3 0.2
21/12:00am 27.2 29.1 25.0 88 1.5 S 24 28 13 15 1011.0 1010.9 0.2
 
Date/Time
EST
Temp
°C
App
Temp
°C
Dew
Point
°C
Rel
Hum
%
Delta-T
°C
Wind Press
QNH
hPa
Press
MSL
hPa
Rain since
9am
mm
Dir  Spd
km/h
Gust
km/h
Spd
kts
Gust
kts
20/11:30pm 27.2 29.1 25.0 88 1.5 SSE 24 28 13 15 1011.3 1011.2 0.2
20/11:00pm 27.2 30.0 25.2 89 1.4 S 20 22 11 12 1011.5 1011.4 0.2
20/10:30pm 27.1 28.9 24.9 88 1.5 SSE 24 26 13 14 1011.7 1011.6 0.2
20/10:00pm 27.1 29.4 25.1 89 1.4 SSE 22 26 12 14 1011.7 1011.6 0.2
20/09:30pm 27.1 28.9 24.9 88 1.5 SSE 24 26 13 14 1011.6 1011.5 0.2
20/09:00pm 27.3 29.3 25.1 88 1.5 SSE 24 30 13 16 1011.5 1011.4 0.2
20/08:30pm 27.3 28.9 25.1 88 1.5 SSE 26 30 14 16 1011.4 1011.3 0.2
20/08:00pm 27.2 28.2 24.8 87 1.7 SSE 28 30 15 16 1011.1 1011.0 0.2
20/07:30pm 27.3 28.4 24.9 87 1.7 SSE 28 30 15 16 1010.6 1010.5 0.2
20/07:00pm 27.5 29.7 25.5 89 1.4 S 24 26 13 14 1010.3 1010.2 0.2
20/06:30pm 27.2 29.5 25.0 88 1.5 SSE 22 26 12 14 1009.8 1009.7 0.2
20/06:00pm 27.3 29.6 25.1 88 1.5 SSE 22 28 12 15 1009.5 1009.4 0.2
20/05:30pm 27.4 29.8 25.2 88 1.5 SSE 22 26 12 14 1009.2 1009.1 0.2
20/05:00pm 27.8 30.5 25.6 88 1.6 SSE 22 26 12 14 1009.0 1008.9 0.2
20/04:30pm 28.0 31.0 25.6 87 1.7 SSE 20 24 11 13 1008.6 1008.5 0.2
20/04:00pm 27.8 30.7 25.4 87 1.7 SE 20 24 11 13 1008.3 1008.2 0.2
20/03:30pm 28.5 30.7 25.5 84 2.1 SE 24 28 13 15 1007.9 1007.8 0.2
20/03:00pm 29.0 31.0 25.8 83 2.3 SE 26 28 14 15 1007.9 1007.8 0.2
20/02:30pm 29.6 32.9 26.6 84 2.1 SE 22 26 12 14 1008.2 1008.1 0.2
20/02:00pm 29.1 31.8 25.7 82 2.4 SE 22 26 12 14 1008.5 1008.4 0.2
20/01:30pm 28.9 31.9 25.5 82 2.4 ESE 20 24 11 13 1009.0 1008.9 0.2
20/01:00pm 28.8 32.5 25.8 84 2.1 ESE 17 20 9 11 1009.8 1009.7 0.2
20/12:30pm 28.3 31.5 25.5 85 2.0 SE 19 22 10 12 1010.3 1010.2 0.2
20/12:00pm 28.4 30.4 25.2 83 2.2 SE 24 26 13 14 1010.4 1010.3 0.0
20/11:30am 28.7 31.2 25.9 85 2.0 SE 24 26 13 14 1010.8 1010.7 0.0
20/11:00am 29.3 32.0 26.3 84 2.1 SE 24 26 13 14 1011.3 1011.2 0.0
20/10:30am 29.1 31.6 25.9 83 2.3 SE 24 30 13 16 1011.6 1011.5 0.0
20/10:00am 28.6 30.5 25.6 84 2.1 ESE 26 32 14 17 1011.7 1011.6 0.0
20/09:30am 28.3 30.8 25.3 84 2.1 SE 22 26 12 14 1012.2 1012.1 0.0
20/09:00am 28.3 31.4 26.3 89 1.4 SE 22 26 12 14 1012.1 1012.0 0.0
20/08:30am 28.1 30.1 25.1 84 2.1 SE 24 28 13 15 1011.9 1011.8 0.0
20/08:00am 27.8 29.8 24.6 83 2.2 SE 22 26 12 14 1012.0 1011.9 0.0
20/07:30am 27.5 29.3 24.9 86 1.8 SE 24 28 13 15 1011.8 1011.7 0.0
20/07:00am 27.3 27.7 24.4 84 2.0 SE 30 33 16 18 1011.0 1010.9 0.0
20/06:30am 27.2 27.3 24.5 85 1.9 SE 32 35 17 19 1010.1 1010.0 0.0
20/06:00am 27.1 27.1 24.4 85 1.9 SE 32 35 17 19 1009.5 1009.4 0.0
20/05:30am 27.0 27.5 23.9 83 2.1 SE 28 32 15 17 1009.7 1009.6 0.0
20/05:00am 27.0 28.7 24.6 87 1.7 SE 24 30 13 16 1009.8 1009.7 0.0
20/04:30am 27.0 28.3 24.6 87 1.7 SE 26 30 14 16 1009.8 1009.7 0.0
20/04:00am 27.1 28.4 24.6 86 1.7 SE 26 30 14 16 1010.0 1009.9 0.0
20/03:30am 27.1 28.4 24.7 87 1.7 SE 26 32 14 17 1009.9 1009.8 0.0
20/03:00am 27.1 27.6 24.6 86 1.7 SE 30 33 16 18 1009.7 1009.6 0.0
20/02:30am 27.1 27.0 24.2 84 2.0 ESE 32 39 17 21 1009.7 1009.6 0.0
20/02:00am 27.2 26.8 24.7 86 1.7 ESE 35 41 19 22 1009.4 1009.3 0.0
20/01:30am 27.2 26.3 24.5 85 1.9 SE 37 41 20 22 1009.7 1009.6 0.0
20/01:00am 27.2 26.9 24.8 87 1.7 SE 35 41 19 22 1010.0 1009.9 0.0
20/12:30am 27.3 26.4 24.4 84 2.0 ESE 37 43 20 23 1010.4 1010.3 0.0
20/12:00am 27.3 26.5 24.7 86 1.8 SE 37 43 20 23 1010.8 1010.7 0.0
 
Date/Time
EST
Temp
°C
App
Temp
°C
Dew
Point
°C
Rel
Hum
%
Delta-T
°C
Wind Press
QNH
hPa
Press
MSL
hPa
Rain since
9am
mm
Dir  Spd
km/h
Gust
km/h
Spd
kts
Gust
kts
19/11:30pm 27.3 26.2 24.7 86 1.8 SE 39 44 21 24 1011.1 1011.0 0.0
19/11:00pm 27.3 26.2 24.7 86 1.8 SE 39 44 21 24 1011.3 1011.2 0.0
19/10:30pm 27.3 26.5 24.7 86 1.8 SE 37 43 20 23 1011.5 1011.4 0.0
19/10:00pm 27.4 26.6 25.2 88 1.5 SE 39 46 21 25 1011.3 1011.2 0.0
19/09:30pm 27.3 26.4 25.1 88 1.5 SE 39 43 21 23 1011.5 1011.4 0.0
19/09:00pm 27.2 26.6 25.0 88 1.5 SE 37 43 20 23 1011.5 1011.4 0.0
19/08:30pm 27.3 26.8 25.1 88 1.5 SE 37 43 20 23 1011.6 1011.5 0.0
19/08:00pm 27.4 27.5 25.4 89 1.4 SE 35 41 19 22 1011.4 1011.3 0.0
19/07:30pm 27.2 27.0 25.0 88 1.5 SE 35 41 19 22 1011.0 1010.9 0.0
19/07:00pm 27.4 27.3 25.2 88 1.5 SE 35 39 19 21 1010.6 1010.5 0.0
19/06:30pm 27.4 27.7 25.2 88 1.5 SE 33 39 18 21 1010.3 1010.2 0.0
19/06:00pm 27.5 27.4 25.1 87 1.7 SE 35 39 19 21 1009.9 1009.8 0.0
19/05:30pm 27.4 27.2 25.0 87 1.7 SE 35 41 19 22 1009.6 1009.5 0.0
19/05:00pm 27.6 28.2 25.4 88 1.5 SE 32 37 17 20 1009.4 1009.3 0.0
19/04:30pm 27.7 28.5 25.1 86 1.8 SE 30 35 16 19 1009.2 1009.1 0.0
19/04:00pm 28.0 29.0 25.4 86 1.8 SE 30 35 16 19 1008.9 1008.8 0.0
19/03:30pm 28.1 29.2 25.5 86 1.8 SE 30 33 16 18 1008.7 1008.6 0.0
19/03:00pm 28.4 30.0 25.8 86 1.8 SE 28 33 15 18 1008.5 1008.4 0.0
19/02:30pm 28.2 29.5 25.8 87 1.7 SE 30 33 16 18 1008.5 1008.4 0.0
19/02:00pm 28.4 29.7 25.8 86 1.8 SE 30 33 16 18 1008.7 1008.6 0.0
19/01:30pm 28.5 30.2 25.9 86 1.8 SE 28 32 15 17 1008.9 1008.8 0.0
19/01:00pm 28.6 30.0 26.0 86 1.8 ESE 30 35 16 19 1009.0 1008.9 0.0
19/12:30pm 28.8 30.1 26.4 87 1.7 ESE 32 35 17 19 1009.2 1009.1 0.0
19/12:00pm 28.7 29.8 26.1 86 1.8 SE 32 37 17 20 1009.5 1009.4 0.0
19/11:30am 28.9 29.9 26.3 86 1.9 ESE 33 37 18 20 1010.0 1009.9 0.0
19/11:00am 28.6 29.7 26.2 87 1.7 ESE 32 37 17 20 1010.5 1010.4 0.0
19/10:30am 28.2 29.2 26.0 88 1.6 ESE 32 37 17 20 1011.1 1011.0 0.0
19/10:00am 28.2 29.3 26.2 89 1.4 ESE 32 35 17 19 1011.7 1011.6 0.0
19/09:30am 28.4 30.3 26.2 88 1.6 ESE 28 33 15 18 1012.2 1012.1 0.0
19/09:00am 27.9 29.1 25.7 88 1.6 SE 30 35 16 19 1012.0 1011.9 2.4
19/08:30am 28.0 29.6 25.8 88 1.6 ESE 28 33 15 18 1011.8 1011.7 2.4
19/08:00am 27.8 28.8 25.4 87 1.7 ESE 30 33 16 18 1011.6 1011.5 2.4

Other formats

Comma delimited format used in spreadsheet applications
http://www.bom.gov.au/fwo/IDQ60801/IDQ60801.94299.axf

JavaScript Object Notation format (JSON) in row-major order
http://www.bom.gov.au/fwo/IDQ60801/IDQ60801.94299.json

Data quality

Most of these data are generated automatically and are frequently updated. Quality checks on data are not normally performed. It is possible for incorrect values to appear. Refer to information at About Latest Weather Observations and please check the disclaimer before using these data.